sensor_id;sensor_type;location;lat;lon;timestamp;P1;durP1;ratioP1;P2;durP2;ratioP2
75073;SDS011;63652;51.526;5.080;2023-11-21T00:01:09;19.80;;;8.60;;
75073;SDS011;63652;51.526;5.080;2023-11-21T00:03:35;22.33;;;9.00;;
75073;SDS011;63652;51.526;5.080;2023-11-21T00:06:00;20.38;;;8.32;;
75073;SDS011;63652;51.526;5.080;2023-11-21T00:08:26;17.08;;;8.07;;
75073;SDS011;63652;51.526;5.080;2023-11-21T00:10:52;19.83;;;8.55;;
75073;SDS011;63652;51.526;5.080;2023-11-21T00:13:17;15.57;;;8.60;;
75073;SDS011;63652;51.526;5.080;2023-11-21T00:15:43;13.77;;;7.13;;
75073;SDS011;63652;51.526;5.080;2023-11-21T00:18:08;17.23;;;7.87;;
75073;SDS011;63652;51.526;5.080;2023-11-21T00:20:34;13.95;;;7.30;;
75073;SDS011;63652;51.526;5.080;2023-11-21T00:22:59;18.30;;;7.93;;
75073;SDS011;63652;51.526;5.080;2023-11-21T00:25:27;16.55;;;7.78;;
75073;SDS011;63652;51.526;5.080;2023-11-21T00:27:52;15.38;;;7.10;;
75073;SDS011;63652;51.526;5.080;2023-11-21T00:30:19;18.90;;;7.05;;
75073;SDS011;63652;51.526;5.080;2023-11-21T00:32:45;14.27;;;6.15;;
75073;SDS011;63652;51.526;5.080;2023-11-21T00:35:10;13.77;;;6.30;;
75073;SDS011;63652;51.526;5.080;2023-11-21T00:37:35;11.70;;;5.68;;
75073;SDS011;63652;51.526;5.080;2023-11-21T00:40:01;13.97;;;5.67;;
75073;SDS011;63652;51.526;5.080;2023-11-21T00:42:30;12.68;;;6.28;;
75073;SDS011;63652;51.526;5.080;2023-11-21T00:44:56;14.77;;;6.30;;
75073;SDS011;63652;51.526;5.080;2023-11-21T00:47:22;12.37;;;5.63;;
75073;SDS011;63652;51.526;5.080;2023-11-21T00:49:47;13.38;;;5.75;;
75073;SDS011;63652;51.526;5.080;2023-11-21T00:52:14;17.02;;;6.43;;
75073;SDS011;63652;51.526;5.080;2023-11-21T00:54:39;11.65;;;5.88;;
75073;SDS011;63652;51.526;5.080;2023-11-21T00:57:04;14.30;;;5.88;;
75073;SDS011;63652;51.526;5.080;2023-11-21T00:59:30;15.52;;;6.78;;
75073;SDS011;63652;51.526;5.080;2023-11-21T01:01:55;12.45;;;5.93;;
75073;SDS011;63652;51.526;5.080;2023-11-21T01:04:20;13.48;;;6.68;;
75073;SDS011;63652;51.526;5.080;2023-11-21T01:06:46;13.93;;;7.00;;
75073;SDS011;63652;51.526;5.080;2023-11-21T01:09:12;13.68;;;6.43;;
75073;SDS011;63652;51.526;5.080;2023-11-21T01:11:37;13.18;;;6.50;;
75073;SDS011;63652;51.526;5.080;2023-11-21T01:14:05;11.98;;;6.13;;
75073;SDS011;63652;51.526;5.080;2023-11-21T01:16:31;12.25;;;5.30;;
75073;SDS011;63652;51.526;5.080;2023-11-21T01:19:00;14.45;;;5.85;;
75073;SDS011;63652;51.526;5.080;2023-11-21T01:21:26;9.00;;;5.47;;
75073;SDS011;63652;51.526;5.080;2023-11-21T01:23:52;16.15;;;5.82;;
75073;SDS011;63652;51.526;5.080;2023-11-21T01:26:18;14.37;;;5.50;;
75073;SDS011;63652;51.526;5.080;2023-11-21T01:28:43;15.60;;;6.23;;
75073;SDS011;63652;51.526;5.080;2023-11-21T01:31:08;30.83;;;7.27;;
75073;SDS011;63652;51.526;5.080;2023-11-21T01:33:33;18.10;;;7.10;;
75073;SDS011;63652;51.526;5.080;2023-11-21T01:35:59;21.27;;;8.07;;
75073;SDS011;63652;51.526;5.080;2023-11-21T01:38:25;23.77;;;7.43;;
75073;SDS011;63652;51.526;5.080;2023-11-21T01:40:50;18.05;;;7.20;;
75073;SDS011;63652;51.526;5.080;2023-11-21T01:43:15;37.23;;;7.37;;
75073;SDS011;63652;51.526;5.080;2023-11-21T01:45:41;20.27;;;7.68;;
75073;SDS011;63652;51.526;5.080;2023-11-21T01:48:06;15.40;;;6.93;;
75073;SDS011;63652;51.526;5.080;2023-11-21T01:50:32;22.25;;;6.95;;
75073;SDS011;63652;51.526;5.080;2023-11-21T01:52:58;14.40;;;6.55;;
75073;SDS011;63652;51.526;5.080;2023-11-21T01:55:24;29.98;;;7.47;;
75073;SDS011;63652;51.526;5.080;2023-11-21T01:57:50;20.48;;;7.90;;
75073;SDS011;63652;51.526;5.080;2023-11-21T02:00:15;20.33;;;7.75;;
75073;SDS011;63652;51.526;5.080;2023-11-21T02:02:47;21.67;;;7.82;;
75073;SDS011;63652;51.526;5.080;2023-11-21T02:05:13;21.55;;;8.02;;
75073;SDS011;63652;51.526;5.080;2023-11-21T02:07:39;15.70;;;8.07;;
75073;SDS011;63652;51.526;5.080;2023-11-21T02:10:05;14.07;;;7.22;;
75073;SDS011;63652;51.526;5.080;2023-11-21T02:12:30;15.07;;;7.63;;
75073;SDS011;63652;51.526;5.080;2023-11-21T02:14:55;13.90;;;6.93;;
75073;SDS011;63652;51.526;5.080;2023-11-21T02:17:24;19.27;;;7.57;;
75073;SDS011;63652;51.526;5.080;2023-11-21T02:19:49;13.77;;;7.85;;
75073;SDS011;63652;51.526;5.080;2023-11-21T02:22:17;14.77;;;7.32;;
75073;SDS011;63652;51.526;5.080;2023-11-21T02:24:43;24.48;;;8.32;;
75073;SDS011;63652;51.526;5.080;2023-11-21T02:27:10;16.90;;;7.90;;
75073;SDS011;63652;51.526;5.080;2023-11-21T02:29:36;21.33;;;8.02;;
75073;SDS011;63652;51.526;5.080;2023-11-21T02:32:01;14.03;;;7.07;;
75073;SDS011;63652;51.526;5.080;2023-11-21T02:34:26;17.87;;;7.40;;
75073;SDS011;63652;51.526;5.080;2023-11-21T02:36:54;20.20;;;8.27;;
75073;SDS011;63652;51.526;5.080;2023-11-21T02:39:23;22.70;;;8.82;;
75073;SDS011;63652;51.526;5.080;2023-11-21T02:41:49;13.13;;;6.90;;
75073;SDS011;63652;51.526;5.080;2023-11-21T02:44:15;17.05;;;7.75;;
75073;SDS011;63652;51.526;5.080;2023-11-21T02:46:40;16.13;;;8.27;;
75073;SDS011;63652;51.526;5.080;2023-11-21T02:49:06;18.37;;;8.43;;
75073;SDS011;63652;51.526;5.080;2023-11-21T02:51:31;14.57;;;7.47;;
75073;SDS011;63652;51.526;5.080;2023-11-21T02:53:57;13.32;;;6.85;;
75073;SDS011;63652;51.526;5.080;2023-11-21T02:56:25;15.95;;;7.75;;
75073;SDS011;63652;51.526;5.080;2023-11-21T02:58:52;16.15;;;8.18;;
75073;SDS011;63652;51.526;5.080;2023-11-21T03:01:18;15.15;;;8.02;;
75073;SDS011;63652;51.526;5.080;2023-11-21T03:03:43;14.43;;;7.10;;
75073;SDS011;63652;51.526;5.080;2023-11-21T03:06:08;15.98;;;7.60;;
75073;SDS011;63652;51.526;5.080;2023-11-21T03:08:34;19.47;;;8.13;;
75073;SDS011;63652;51.526;5.080;2023-11-21T03:10:59;15.73;;;7.80;;
75073;SDS011;63652;51.526;5.080;2023-11-21T03:13:25;16.52;;;8.18;;
75073;SDS011;63652;51.526;5.080;2023-11-21T03:15:50;16.47;;;7.40;;
75073;SDS011;63652;51.526;5.080;2023-11-21T03:18:15;19.38;;;8.15;;
75073;SDS011;63652;51.526;5.080;2023-11-21T03:20:41;15.13;;;7.40;;
75073;SDS011;63652;51.526;5.080;2023-11-21T03:23:06;14.27;;;7.60;;
75073;SDS011;63652;51.526;5.080;2023-11-21T03:25:31;16.83;;;6.88;;
75073;SDS011;63652;51.526;5.080;2023-11-21T03:27:57;15.23;;;7.22;;
75073;SDS011;63652;51.526;5.080;2023-11-21T03:30:22;13.02;;;7.70;;
75073;SDS011;63652;51.526;5.080;2023-11-21T03:32:48;18.67;;;7.68;;
75073;SDS011;63652;51.526;5.080;2023-11-21T03:35:13;13.80;;;7.43;;
75073;SDS011;63652;51.526;5.080;2023-11-21T03:37:38;17.33;;;8.13;;
75073;SDS011;63652;51.526;5.080;2023-11-21T03:40:06;15.68;;;6.70;;
75073;SDS011;63652;51.526;5.080;2023-11-21T03:42:33;14.80;;;7.53;;
75073;SDS011;63652;51.526;5.080;2023-11-21T03:44:58;15.63;;;7.93;;
75073;SDS011;63652;51.526;5.080;2023-11-21T03:47:23;17.42;;;7.63;;
75073;SDS011;63652;51.526;5.080;2023-11-21T03:49:49;13.93;;;6.82;;
75073;SDS011;63652;51.526;5.080;2023-11-21T03:52:14;16.83;;;8.15;;
75073;SDS011;63652;51.526;5.080;2023-11-21T03:54:40;16.60;;;8.65;;
75073;SDS011;63652;51.526;5.080;2023-11-21T03:57:05;19.37;;;8.80;;
75073;SDS011;63652;51.526;5.080;2023-11-21T03:59:30;14.37;;;7.37;;
75073;SDS011;63652;51.526;5.080;2023-11-21T04:01:56;12.60;;;7.15;;
75073;SDS011;63652;51.526;5.080;2023-11-21T04:04:22;15.07;;;7.45;;
75073;SDS011;63652;51.526;5.080;2023-11-21T04:06:47;16.13;;;7.32;;
75073;SDS011;63652;51.526;5.080;2023-11-21T04:09:12;15.65;;;7.38;;
75073;SDS011;63652;51.526;5.080;2023-11-21T04:11:37;13.67;;;7.43;;
75073;SDS011;63652;51.526;5.080;2023-11-21T04:14:03;14.70;;;7.72;;
75073;SDS011;63652;51.526;5.080;2023-11-21T04:16:28;15.52;;;6.72;;
75073;SDS011;63652;51.526;5.080;2023-11-21T04:18:53;15.07;;;7.30;;
75073;SDS011;63652;51.526;5.080;2023-11-21T04:21:18;12.03;;;6.93;;
75073;SDS011;63652;51.526;5.080;2023-11-21T04:23:44;18.70;;;7.47;;
75073;SDS011;63652;51.526;5.080;2023-11-21T04:26:09;14.47;;;7.00;;
75073;SDS011;63652;51.526;5.080;2023-11-21T04:28:34;15.40;;;7.93;;
75073;SDS011;63652;51.526;5.080;2023-11-21T04:30:59;14.03;;;7.97;;
75073;SDS011;63652;51.526;5.080;2023-11-21T04:33:25;15.27;;;8.40;;
75073;SDS011;63652;51.526;5.080;2023-11-21T04:35:50;19.95;;;9.18;;
75073;SDS011;63652;51.526;5.080;2023-11-21T04:38:16;19.17;;;7.97;;
75073;SDS011;63652;51.526;5.080;2023-11-21T04:40:41;15.93;;;8.00;;
75073;SDS011;63652;51.526;5.080;2023-11-21T04:43:06;15.57;;;7.47;;
75073;SDS011;63652;51.526;5.080;2023-11-21T04:45:31;15.30;;;7.90;;
75073;SDS011;63652;51.526;5.080;2023-11-21T04:47:57;14.07;;;7.10;;
75073;SDS011;63652;51.526;5.080;2023-11-21T04:50:22;16.23;;;7.60;;
75073;SDS011;63652;51.526;5.080;2023-11-21T04:52:48;20.60;;;7.73;;
75073;SDS011;63652;51.526;5.080;2023-11-21T04:55:13;14.75;;;8.18;;
75073;SDS011;63652;51.526;5.080;2023-11-21T04:57:38;16.90;;;8.23;;
75073;SDS011;63652;51.526;5.080;2023-11-21T05:00:06;20.73;;;8.68;;
75073;SDS011;63652;51.526;5.080;2023-11-21T05:02:32;18.75;;;7.82;;
75073;SDS011;63652;51.526;5.080;2023-11-21T05:04:59;15.88;;;6.97;;
75073;SDS011;63652;51.526;5.080;2023-11-21T05:07:24;18.90;;;8.05;;
75073;SDS011;63652;51.526;5.080;2023-11-21T05:09:56;14.88;;;7.70;;
75073;SDS011;63652;51.526;5.080;2023-11-21T05:12:21;22.75;;;8.52;;
75073;SDS011;63652;51.526;5.080;2023-11-21T05:14:48;12.70;;;6.93;;
75073;SDS011;63652;51.526;5.080;2023-11-21T05:17:13;16.35;;;7.55;;
75073;SDS011;63652;51.526;5.080;2023-11-21T05:19:39;15.82;;;7.38;;
75073;SDS011;63652;51.526;5.080;2023-11-21T05:22:05;20.63;;;7.43;;
75073;SDS011;63652;51.526;5.080;2023-11-21T05:24:30;16.27;;;7.80;;
75073;SDS011;63652;51.526;5.080;2023-11-21T05:26:56;17.10;;;8.82;;
75073;SDS011;63652;51.526;5.080;2023-11-21T05:29:24;14.53;;;7.23;;
75073;SDS011;63652;51.526;5.080;2023-11-21T05:31:50;18.85;;;7.82;;
75073;SDS011;63652;51.526;5.080;2023-11-21T05:34:16;15.88;;;7.82;;
75073;SDS011;63652;51.526;5.080;2023-11-21T05:36:42;25.60;;;7.93;;
75073;SDS011;63652;51.526;5.080;2023-11-21T05:39:08;17.50;;;7.95;;
75073;SDS011;63652;51.526;5.080;2023-11-21T05:41:33;14.73;;;7.57;;
75073;SDS011;63652;51.526;5.080;2023-11-21T05:43:59;13.23;;;7.15;;
75073;SDS011;63652;51.526;5.080;2023-11-21T05:46:24;19.00;;;8.57;;
75073;SDS011;63652;51.526;5.080;2023-11-21T05:48:49;15.40;;;8.50;;
75073;SDS011;63652;51.526;5.080;2023-11-21T05:51:15;17.70;;;7.75;;
75073;SDS011;63652;51.526;5.080;2023-11-21T05:53:40;19.40;;;7.73;;
75073;SDS011;63652;51.526;5.080;2023-11-21T05:56:06;16.48;;;8.10;;
75073;SDS011;63652;51.526;5.080;2023-11-21T05:58:32;16.02;;;7.72;;
75073;SDS011;63652;51.526;5.080;2023-11-21T06:00:57;12.52;;;6.82;;
75073;SDS011;63652;51.526;5.080;2023-11-21T06:03:23;17.33;;;8.02;;
75073;SDS011;63652;51.526;5.080;2023-11-21T06:05:48;17.07;;;8.10;;
75073;SDS011;63652;51.526;5.080;2023-11-21T06:08:13;17.50;;;7.60;;
75073;SDS011;63652;51.526;5.080;2023-11-21T06:10:42;14.25;;;7.55;;
75073;SDS011;63652;51.526;5.080;2023-11-21T06:13:07;17.60;;;7.10;;
75073;SDS011;63652;51.526;5.080;2023-11-21T06:15:32;17.67;;;8.68;;
75073;SDS011;63652;51.526;5.080;2023-11-21T06:17:58;22.88;;;8.30;;
75073;SDS011;63652;51.526;5.080;2023-11-21T06:20:23;18.00;;;7.88;;
75073;SDS011;63652;51.526;5.080;2023-11-21T06:22:49;16.33;;;7.35;;
75073;SDS011;63652;51.526;5.080;2023-11-21T06:25:15;19.13;;;7.88;;
75073;SDS011;63652;51.526;5.080;2023-11-21T06:27:44;16.27;;;8.05;;
75073;SDS011;63652;51.526;5.080;2023-11-21T06:30:10;20.02;;;7.55;;
75073;SDS011;63652;51.526;5.080;2023-11-21T06:32:37;16.23;;;7.85;;
75073;SDS011;63652;51.526;5.080;2023-11-21T06:35:02;17.92;;;8.15;;
75073;SDS011;63652;51.526;5.080;2023-11-21T06:37:29;16.17;;;7.68;;
75073;SDS011;63652;51.526;5.080;2023-11-21T06:39:54;18.40;;;7.55;;
75073;SDS011;63652;51.526;5.080;2023-11-21T06:42:19;15.77;;;7.78;;
75073;SDS011;63652;51.526;5.080;2023-11-21T06:44:45;18.87;;;8.53;;
75073;SDS011;63652;51.526;5.080;2023-11-21T06:47:10;15.98;;;7.13;;
75073;SDS011;63652;51.526;5.080;2023-11-21T06:49:36;16.35;;;7.53;;
75073;SDS011;63652;51.526;5.080;2023-11-21T06:52:01;20.85;;;8.38;;
75073;SDS011;63652;51.526;5.080;2023-11-21T06:54:28;16.85;;;7.68;;
75073;SDS011;63652;51.526;5.080;2023-11-21T06:56:54;15.70;;;7.68;;
75073;SDS011;63652;51.526;5.080;2023-11-21T06:59:19;23.60;;;7.80;;
75073;SDS011;63652;51.526;5.080;2023-11-21T07:01:44;19.10;;;7.97;;
75073;SDS011;63652;51.526;5.080;2023-11-21T07:04:10;14.88;;;6.93;;
75073;SDS011;63652;51.526;5.080;2023-11-21T07:06:35;14.80;;;6.43;;
75073;SDS011;63652;51.526;5.080;2023-11-21T07:09:00;12.80;;;6.77;;
75073;SDS011;63652;51.526;5.080;2023-11-21T07:11:26;18.80;;;8.73;;
75073;SDS011;63652;51.526;5.080;2023-11-21T07:13:51;19.25;;;7.55;;
75073;SDS011;63652;51.526;5.080;2023-11-21T07:16:18;18.17;;;7.17;;
75073;SDS011;63652;51.526;5.080;2023-11-21T07:18:43;20.63;;;8.30;;
75073;SDS011;63652;51.526;5.080;2023-11-21T07:21:09;17.25;;;7.53;;
75073;SDS011;63652;51.526;5.080;2023-11-21T07:23:36;22.20;;;8.75;;
75073;SDS011;63652;51.526;5.080;2023-11-21T07:26:02;22.13;;;8.70;;
75073;SDS011;63652;51.526;5.080;2023-11-21T07:28:28;19.17;;;7.38;;
75073;SDS011;63652;51.526;5.080;2023-11-21T07:30:54;20.40;;;9.07;;
75073;SDS011;63652;51.526;5.080;2023-11-21T07:33:19;19.40;;;7.60;;
75073;SDS011;63652;51.526;5.080;2023-11-21T07:35:44;23.92;;;8.80;;
75073;SDS011;63652;51.526;5.080;2023-11-21T07:38:10;24.27;;;9.20;;
75073;SDS011;63652;51.526;5.080;2023-11-21T07:40:35;21.63;;;9.17;;
75073;SDS011;63652;51.526;5.080;2023-11-21T07:43:00;21.80;;;8.70;;
75073;SDS011;63652;51.526;5.080;2023-11-21T07:45:26;22.70;;;9.17;;
75073;SDS011;63652;51.526;5.080;2023-11-21T07:47:53;21.27;;;8.75;;
75073;SDS011;63652;51.526;5.080;2023-11-21T07:50:18;22.42;;;8.05;;
75073;SDS011;63652;51.526;5.080;2023-11-21T07:52:45;19.67;;;8.80;;
75073;SDS011;63652;51.526;5.080;2023-11-21T07:55:10;18.90;;;7.73;;
75073;SDS011;63652;51.526;5.080;2023-11-21T07:57:36;21.25;;;9.52;;
75073;SDS011;63652;51.526;5.080;2023-11-21T08:00:01;21.20;;;9.02;;
75073;SDS011;63652;51.526;5.080;2023-11-21T08:02:28;22.02;;;9.00;;
75073;SDS011;63652;51.526;5.080;2023-11-21T08:04:54;18.20;;;7.53;;
75073;SDS011;63652;51.526;5.080;2023-11-21T08:07:21;20.60;;;8.75;;
75073;SDS011;63652;51.526;5.080;2023-11-21T08:09:47;20.77;;;8.10;;
75073;SDS011;63652;51.526;5.080;2023-11-21T08:12:14;19.45;;;8.63;;
75073;SDS011;63652;51.526;5.080;2023-11-21T08:14:40;21.50;;;8.90;;
75073;SDS011;63652;51.526;5.080;2023-11-21T08:17:05;24.05;;;8.43;;
75073;SDS011;63652;51.526;5.080;2023-11-21T08:19:31;19.95;;;8.65;;
75073;SDS011;63652;51.526;5.080;2023-11-21T08:21:58;24.23;;;9.23;;
75073;SDS011;63652;51.526;5.080;2023-11-21T08:24:24;26.15;;;8.98;;
75073;SDS011;63652;51.526;5.080;2023-11-21T08:26:49;22.75;;;7.97;;
75073;SDS011;63652;51.526;5.080;2023-11-21T08:29:15;23.80;;;9.35;;
75073;SDS011;63652;51.526;5.080;2023-11-21T08:31:41;23.70;;;9.70;;
75073;SDS011;63652;51.526;5.080;2023-11-21T08:34:07;24.13;;;8.95;;
75073;SDS011;63652;51.526;5.080;2023-11-21T08:36:32;26.97;;;8.93;;
75073;SDS011;63652;51.526;5.080;2023-11-21T08:38:57;24.93;;;9.17;;
75073;SDS011;63652;51.526;5.080;2023-11-21T08:41:23;22.38;;;9.18;;
75073;SDS011;63652;51.526;5.080;2023-11-21T08:43:49;23.08;;;9.15;;
75073;SDS011;63652;51.526;5.080;2023-11-21T08:46:15;20.77;;;9.27;;
75073;SDS011;63652;51.526;5.080;2023-11-21T08:48:40;34.22;;;9.75;;
75073;SDS011;63652;51.526;5.080;2023-11-21T08:51:06;26.48;;;10.10;;
75073;SDS011;63652;51.526;5.080;2023-11-21T08:53:31;26.42;;;9.00;;
75073;SDS011;63652;51.526;5.080;2023-11-21T08:55:56;35.00;;;9.87;;
75073;SDS011;63652;51.526;5.080;2023-11-21T08:58:22;30.33;;;9.35;;
75073;SDS011;63652;51.526;5.080;2023-11-21T09:00:47;24.48;;;8.85;;
75073;SDS011;63652;51.526;5.080;2023-11-21T09:03:12;25.67;;;9.90;;
75073;SDS011;63652;51.526;5.080;2023-11-21T09:05:38;26.50;;;9.10;;
75073;SDS011;63652;51.526;5.080;2023-11-21T09:08:04;23.85;;;8.68;;
75073;SDS011;63652;51.526;5.080;2023-11-21T09:10:29;34.27;;;8.37;;
75073;SDS011;63652;51.526;5.080;2023-11-21T09:12:54;27.10;;;8.57;;
75073;SDS011;63652;51.526;5.080;2023-11-21T09:15:23;24.17;;;9.35;;
75073;SDS011;63652;51.526;5.080;2023-11-21T09:17:48;32.33;;;9.25;;
75073;SDS011;63652;51.526;5.080;2023-11-21T09:20:13;28.67;;;9.38;;
75073;SDS011;63652;51.526;5.080;2023-11-21T09:22:40;29.05;;;9.43;;
75073;SDS011;63652;51.526;5.080;2023-11-21T09:25:05;26.33;;;9.02;;
75073;SDS011;63652;51.526;5.080;2023-11-21T09:27:31;21.67;;;8.80;;
75073;SDS011;63652;51.526;5.080;2023-11-21T09:29:56;27.90;;;11.45;;
75073;SDS011;63652;51.526;5.080;2023-11-21T09:32:23;31.02;;;10.88;;
75073;SDS011;63652;51.526;5.080;2023-11-21T09:34:48;25.23;;;9.00;;
75073;SDS011;63652;51.526;5.080;2023-11-21T09:37:14;21.73;;;9.02;;
75073;SDS011;63652;51.526;5.080;2023-11-21T09:39:39;26.65;;;10.13;;
75073;SDS011;63652;51.526;5.080;2023-11-21T09:42:12;24.33;;;9.77;;
75073;SDS011;63652;51.526;5.080;2023-11-21T09:47:05;21.83;;;8.15;;
75073;SDS011;63652;51.526;5.080;2023-11-21T09:49:35;20.83;;;8.73;;
75073;SDS011;63652;51.526;5.080;2023-11-21T09:52:01;21.08;;;8.07;;
75073;SDS011;63652;51.526;5.080;2023-11-21T09:54:28;20.08;;;7.50;;
75073;SDS011;63652;51.526;5.080;2023-11-21T09:56:54;16.40;;;6.95;;
75073;SDS011;63652;51.526;5.080;2023-11-21T09:59:20;15.52;;;6.97;;
75073;SDS011;63652;51.526;5.080;2023-11-21T10:01:49;15.02;;;6.13;;
75073;SDS011;63652;51.526;5.080;2023-11-21T10:04:15;11.35;;;6.03;;
75073;SDS011;63652;51.526;5.080;2023-11-21T10:06:42;11.63;;;4.78;;
75073;SDS011;63652;51.526;5.080;2023-11-21T10:09:11;8.02;;;4.30;;
75073;SDS011;63652;51.526;5.080;2023-11-21T10:11:40;10.70;;;5.38;;
75073;SDS011;63652;51.526;5.080;2023-11-21T10:14:10;11.18;;;4.85;;
75073;SDS011;63652;51.526;5.080;2023-11-21T10:16:37;13.65;;;5.55;;
75073;SDS011;63652;51.526;5.080;2023-11-21T10:19:04;10.60;;;4.68;;
75073;SDS011;63652;51.526;5.080;2023-11-21T10:21:32;13.32;;;4.72;;
75073;SDS011;63652;51.526;5.080;2023-11-21T10:23:58;11.55;;;4.57;;
75073;SDS011;63652;51.526;5.080;2023-11-21T10:26:23;8.82;;;3.90;;
75073;SDS011;63652;51.526;5.080;2023-11-21T10:28:55;12.02;;;4.57;;
75073;SDS011;63652;51.526;5.080;2023-11-21T10:31:22;9.45;;;4.43;;
75073;SDS011;63652;51.526;5.080;2023-11-21T10:33:49;10.07;;;4.05;;
75073;SDS011;63652;51.526;5.080;2023-11-21T10:36:19;10.73;;;4.45;;
75073;SDS011;63652;51.526;5.080;2023-11-21T10:38:49;9.35;;;4.30;;
75073;SDS011;63652;51.526;5.080;2023-11-21T10:41:18;12.70;;;4.40;;
75073;SDS011;63652;51.526;5.080;2023-11-21T10:43:43;10.13;;;5.28;;
75073;SDS011;63652;51.526;5.080;2023-11-21T10:46:09;8.75;;;5.15;;
75073;SDS011;63652;51.526;5.080;2023-11-21T10:48:34;11.05;;;5.18;;
75073;SDS011;63652;51.526;5.080;2023-11-21T10:51:06;7.85;;;4.30;;
75073;SDS011;63652;51.526;5.080;2023-11-21T10:53:38;9.43;;;3.88;;
75073;SDS011;63652;51.526;5.080;2023-11-21T10:56:05;11.82;;;5.00;;
75073;SDS011;63652;51.526;5.080;2023-11-21T10:58:32;11.00;;;4.47;;
75073;SDS011;63652;51.526;5.080;2023-11-21T11:00:58;7.65;;;3.63;;
75073;SDS011;63652;51.526;5.080;2023-11-21T11:03:24;10.35;;;4.43;;
75073;SDS011;63652;51.526;5.080;2023-11-21T11:05:49;9.15;;;4.03;;
75073;SDS011;63652;51.526;5.080;2023-11-21T11:08:19;7.25;;;3.40;;
75073;SDS011;63652;51.526;5.080;2023-11-21T11:10:50;7.82;;;3.58;;
75073;SDS011;63652;51.526;5.080;2023-11-21T11:13:15;10.25;;;3.10;;
75073;SDS011;63652;51.526;5.080;2023-11-21T11:15:41;9.00;;;3.60;;
75073;SDS011;63652;51.526;5.080;2023-11-21T11:18:07;9.52;;;4.15;;
75073;SDS011;63652;51.526;5.080;2023-11-21T11:20:34;9.25;;;4.47;;
75073;SDS011;63652;51.526;5.080;2023-11-21T11:25:51;9.60;;;4.10;;
75073;SDS011;63652;51.526;5.080;2023-11-21T11:28:27;9.52;;;4.75;;
75073;SDS011;63652;51.526;5.080;2023-11-21T11:31:04;7.35;;;3.53;;
75073;SDS011;63652;51.526;5.080;2023-11-21T11:33:52;8.35;;;3.85;;
75073;SDS011;63652;51.526;5.080;2023-11-21T11:38:58;8.73;;;3.53;;
75073;SDS011;63652;51.526;5.080;2023-11-21T11:41:26;7.85;;;3.40;;
75073;SDS011;63652;51.526;5.080;2023-11-21T11:43:52;7.47;;;3.20;;
75073;SDS011;63652;51.526;5.080;2023-11-21T11:46:18;8.05;;;3.67;;
75073;SDS011;63652;51.526;5.080;2023-11-21T11:48:43;7.68;;;3.35;;
75073;SDS011;63652;51.526;5.080;2023-11-21T11:51:13;8.07;;;3.42;;
75073;SDS011;63652;51.526;5.080;2023-11-21T11:53:44;10.10;;;3.58;;
75073;SDS011;63652;51.526;5.080;2023-11-21T11:56:21;7.53;;;3.40;;
75073;SDS011;63652;51.526;5.080;2023-11-21T11:58:48;10.13;;;3.72;;
75073;SDS011;63652;51.526;5.080;2023-11-21T12:01:13;11.27;;;3.83;;
75073;SDS011;63652;51.526;5.080;2023-11-21T12:03:38;15.20;;;4.10;;
75073;SDS011;63652;51.526;5.080;2023-11-21T12:06:04;8.02;;;3.20;;
75073;SDS011;63652;51.526;5.080;2023-11-21T12:08:32;7.03;;;3.55;;
75073;SDS011;63652;51.526;5.080;2023-11-21T12:10:57;9.57;;;3.83;;
75073;SDS011;63652;51.526;5.080;2023-11-21T12:13:23;8.57;;;3.05;;
75073;SDS011;63652;51.526;5.080;2023-11-21T12:15:48;8.05;;;3.70;;
75073;SDS011;63652;51.526;5.080;2023-11-21T12:18:14;9.15;;;3.80;;
75073;SDS011;63652;51.526;5.080;2023-11-21T12:20:39;7.50;;;3.35;;
75073;SDS011;63652;51.526;5.080;2023-11-21T12:23:06;8.50;;;3.75;;
75073;SDS011;63652;51.526;5.080;2023-11-21T12:25:31;8.00;;;3.95;;
75073;SDS011;63652;51.526;5.080;2023-11-21T12:27:58;13.50;;;4.30;;
75073;SDS011;63652;51.526;5.080;2023-11-21T12:30:25;9.43;;;4.70;;
75073;SDS011;63652;51.526;5.080;2023-11-21T12:32:53;10.02;;;3.42;;
75073;SDS011;63652;51.526;5.080;2023-11-21T12:35:19;10.40;;;4.32;;
75073;SDS011;63652;51.526;5.080;2023-11-21T12:37:46;8.68;;;4.30;;
75073;SDS011;63652;51.526;5.080;2023-11-21T12:40:12;10.07;;;4.10;;
75073;SDS011;63652;51.526;5.080;2023-11-21T12:42:44;9.50;;;4.43;;
75073;SDS011;63652;51.526;5.080;2023-11-21T12:45:10;13.50;;;5.60;;
75073;SDS011;63652;51.526;5.080;2023-11-21T12:47:43;11.00;;;5.43;;
75073;SDS011;63652;51.526;5.080;2023-11-21T12:50:09;15.05;;;5.72;;
75073;SDS011;63652;51.526;5.080;2023-11-21T12:52:45;11.98;;;5.63;;
75073;SDS011;63652;51.526;5.080;2023-11-21T12:55:19;14.57;;;6.82;;
75073;SDS011;63652;51.526;5.080;2023-11-21T12:57:47;13.05;;;5.20;;
75073;SDS011;63652;51.526;5.080;2023-11-21T13:00:15;11.68;;;4.80;;
75073;SDS011;63652;51.526;5.080;2023-11-21T13:02:52;14.00;;;5.03;;
75073;SDS011;63652;51.526;5.080;2023-11-21T13:07:50;14.13;;;5.70;;
75073;SDS011;63652;51.526;5.080;2023-11-21T13:10:19;13.18;;;6.32;;
75073;SDS011;63652;51.526;5.080;2023-11-21T13:12:45;10.82;;;5.20;;
75073;SDS011;63652;51.526;5.080;2023-11-21T13:15:14;12.13;;;4.75;;
75073;SDS011;63652;51.526;5.080;2023-11-21T13:17:42;12.30;;;5.32;;
75073;SDS011;63652;51.526;5.080;2023-11-21T13:20:07;14.30;;;4.93;;
75073;SDS011;63652;51.526;5.080;2023-11-21T13:22:35;15.07;;;4.88;;
75073;SDS011;63652;51.526;5.080;2023-11-21T13:25:00;11.55;;;4.88;;
75073;SDS011;63652;51.526;5.080;2023-11-21T13:27:32;11.80;;;5.10;;
75073;SDS011;63652;51.526;5.080;2023-11-21T13:29:58;15.32;;;5.32;;
75073;SDS011;63652;51.526;5.080;2023-11-21T13:32:24;9.40;;;4.47;;
75073;SDS011;63652;51.526;5.080;2023-11-21T13:34:50;11.50;;;5.50;;
75073;SDS011;63652;51.526;5.080;2023-11-21T13:37:19;12.10;;;5.55;;
75073;SDS011;63652;51.526;5.080;2023-11-21T13:39:44;11.17;;;5.07;;
75073;SDS011;63652;51.526;5.080;2023-11-21T13:42:14;14.02;;;5.25;;
75073;SDS011;63652;51.526;5.080;2023-11-21T13:44:41;13.73;;;5.88;;
75073;SDS011;63652;51.526;5.080;2023-11-21T13:47:11;13.68;;;5.68;;
75073;SDS011;63652;51.526;5.080;2023-11-21T13:49:36;14.38;;;5.85;;
75073;SDS011;63652;51.526;5.080;2023-11-21T13:52:05;16.75;;;7.05;;
75073;SDS011;63652;51.526;5.080;2023-11-21T13:54:32;13.88;;;6.47;;
75073;SDS011;63652;51.526;5.080;2023-11-21T13:56:57;15.68;;;6.90;;
75073;SDS011;63652;51.526;5.080;2023-11-21T13:59:24;16.95;;;6.15;;
75073;SDS011;63652;51.526;5.080;2023-11-21T14:01:55;14.70;;;6.43;;
75073;SDS011;63652;51.526;5.080;2023-11-21T14:04:22;15.45;;;5.65;;
75073;SDS011;63652;51.526;5.080;2023-11-21T14:07:26;18.10;;;6.65;;
75073;SDS011;63652;51.526;5.080;2023-11-21T14:10:01;14.55;;;6.18;;
75073;SDS011;63652;51.526;5.080;2023-11-21T14:12:29;17.73;;;6.57;;
75073;SDS011;63652;51.526;5.080;2023-11-21T14:14:59;15.23;;;6.35;;
75073;SDS011;63652;51.526;5.080;2023-11-21T14:17:25;16.80;;;6.07;;
75073;SDS011;63652;51.526;5.080;2023-11-21T14:19:50;13.68;;;5.55;;
75073;SDS011;63652;51.526;5.080;2023-11-21T14:22:15;12.02;;;5.75;;
75073;SDS011;63652;51.526;5.080;2023-11-21T14:24:42;13.13;;;4.90;;
75073;SDS011;63652;51.526;5.080;2023-11-21T14:27:11;14.35;;;5.78;;
75073;SDS011;63652;51.526;5.080;2023-11-21T14:29:37;13.80;;;5.57;;
75073;SDS011;63652;51.526;5.080;2023-11-21T14:32:04;12.93;;;5.15;;
75073;SDS011;63652;51.526;5.080;2023-11-21T14:34:30;15.73;;;6.22;;
75073;SDS011;63652;51.526;5.080;2023-11-21T14:36:56;15.80;;;5.43;;
75073;SDS011;63652;51.526;5.080;2023-11-21T14:39:21;12.93;;;5.20;;
75073;SDS011;63652;51.526;5.080;2023-11-21T14:41:53;11.10;;;5.35;;